sensor_id;sensor_type;location;lat;lon;timestamp;pressure;altitude;pressure_sealevel;temperature;humidity
62544;BME280;48597;49.030;1.822;2022-09-24T00:01:20;100587.25;;;20.30;50.29
62544;BME280;48597;49.030;1.822;2022-09-24T00:03:55;100578.41;;;20.29;50.17
62544;BME280;48597;49.030;1.822;2022-09-24T00:06:22;100585.44;;;20.30;50.36
62544;BME280;48597;49.030;1.822;2022-09-24T00:08:49;100582.91;;;20.29;50.25
62544;BME280;48597;49.030;1.822;2022-09-24T00:11:16;100581.09;;;20.29;50.05
62544;BME280;48597;49.030;1.822;2022-09-24T00:13:45;100581.09;;;20.29;50.13
62544;BME280;48597;49.030;1.822;2022-09-24T00:16:14;100575.75;;;20.29;50.13
62544;BME280;48597;49.030;1.822;2022-09-24T00:18:40;100573.91;;;20.30;50.16
62544;BME280;48597;49.030;1.822;2022-09-24T00:23:39;100572.22;;;20.29;50.19
62544;BME280;48597;49.030;1.822;2022-09-24T00:26:05;100573.06;;;20.29;50.07
62544;BME280;48597;49.030;1.822;2022-09-24T00:28:50;100575.75;;;20.29;50.34
62544;BME280;48597;49.030;1.822;2022-09-24T00:31:15;100573.06;;;20.29;50.24
62544;BME280;48597;49.030;1.822;2022-09-24T00:33:40;100574.91;;;20.29;50.17
62544;BME280;48597;49.030;1.822;2022-09-24T00:36:07;100567.72;;;20.29;50.28
62544;BME280;48597;49.030;1.822;2022-09-24T00:38:33;100571.22;;;20.30;50.19
62544;BME280;48597;49.030;1.822;2022-09-24T00:40:59;100566.72;;;20.30;50.15
62544;BME280;48597;49.030;1.822;2022-09-24T00:45:56;100562.38;;;20.29;50.14
62544;BME280;48597;49.030;1.822;2022-09-24T00:48:23;100559.72;;;20.29;50.27
62544;BME280;48597;49.030;1.822;2022-09-24T00:50:49;100569.56;;;20.29;50.21
62544;BME280;48597;49.030;1.822;2022-09-24T00:53:19;100559.72;;;20.29;50.20
62544;BME280;48597;49.030;1.822;2022-09-24T00:55:49;100556.19;;;20.29;50.28
62544;BME280;48597;49.030;1.822;2022-09-24T00:58:16;100560.72;;;20.28;50.09
62544;BME280;48597;49.030;1.822;2022-09-24T01:00:42;100556.19;;;20.29;50.17
62544;BME280;48597;49.030;1.822;2022-09-24T01:03:18;100554.34;;;20.29;50.27
62544;BME280;48597;49.030;1.822;2022-09-24T01:05:45;100553.53;;;20.29;50.15
62544;BME280;48597;49.030;1.822;2022-09-24T01:08:15;100550.84;;;20.29;50.13
62544;BME280;48597;49.030;1.822;2022-09-24T01:11:06;100551.69;;;20.29;50.15
62544;BME280;48597;49.030;1.822;2022-09-24T01:21:51;100544.69;;;20.28;50.12
62544;BME280;48597;49.030;1.822;2022-09-24T01:24:49;100550.03;;;20.28;50.28
62544;BME280;48597;49.030;1.822;2022-09-24T01:30:22;100548.31;;;20.27;50.16
62544;BME280;48597;49.030;1.822;2022-09-24T01:32:54;100540.31;;;20.27;50.11
62544;BME280;48597;49.030;1.822;2022-09-24T01:37:52;100549.19;;;20.28;50.17
62544;BME280;48597;49.030;1.822;2022-09-24T01:40:21;100542.97;;;20.27;50.13
62544;BME280;48597;49.030;1.822;2022-09-24T01:42:49;100543.84;;;20.28;50.02
62544;BME280;48597;49.030;1.822;2022-09-24T01:45:16;100527.81;;;20.28;50.16
62544;BME280;48597;49.030;1.822;2022-09-24T01:47:43;100529.47;;;20.29;50.16
62544;BME280;48597;49.030;1.822;2022-09-24T01:50:13;100536.66;;;20.28;50.05
62544;BME280;48597;49.030;1.822;2022-09-24T01:55:11;100532.28;;;20.27;50.10
62544;BME280;48597;49.030;1.822;2022-09-24T01:57:41;100528.66;;;20.28;49.91
62544;BME280;48597;49.030;1.822;2022-09-24T02:00:13;100519.09;;;20.26;50.05
62544;BME280;48597;49.030;1.822;2022-09-24T02:02:55;100518.28;;;20.25;50.05
62544;BME280;48597;49.030;1.822;2022-09-24T02:05:35;100523.44;;;20.27;50.10
62544;BME280;48597;49.030;1.822;2022-09-24T02:10:39;100509.25;;;20.26;50.14
62544;BME280;48597;49.030;1.822;2022-09-24T02:13:09;100515.44;;;20.27;50.19
62544;BME280;48597;49.030;1.822;2022-09-24T02:15:41;100508.25;;;20.27;50.32
62544;BME280;48597;49.030;1.822;2022-09-24T02:18:09;100502.91;;;20.27;50.00
62544;BME280;48597;49.030;1.822;2022-09-24T02:20:38;100509.25;;;20.26;50.21
62544;BME280;48597;49.030;1.822;2022-09-24T02:23:04;100510.91;;;20.27;50.10
62544;BME280;48597;49.030;1.822;2022-09-24T02:25:35;100506.56;;;20.26;50.17
62544;BME280;48597;49.030;1.822;2022-09-24T02:28:02;100510.91;;;20.27;50.13
62544;BME280;48597;49.030;1.822;2022-09-24T02:30:33;100501.22;;;20.26;50.06
62544;BME280;48597;49.030;1.822;2022-09-24T02:33:02;100503.91;;;20.26;50.04
62544;BME280;48597;49.030;1.822;2022-09-24T02:35:50;100495.06;;;20.26;49.85
62544;BME280;48597;49.030;1.822;2022-09-24T02:38:17;100494.06;;;20.27;49.96
62544;BME280;48597;49.030;1.822;2022-09-24T02:40:43;100492.38;;;20.26;50.11
62544;BME280;48597;49.030;1.822;2022-09-24T02:43:09;100489.53;;;20.27;49.91
62544;BME280;48597;49.030;1.822;2022-09-24T02:45:34;100495.88;;;20.26;49.97
62544;BME280;48597;49.030;1.822;2022-09-24T02:48:00;100493.22;;;20.26;49.95
62544;BME280;48597;49.030;1.822;2022-09-24T02:50:25;100491.56;;;20.25;49.76
62544;BME280;48597;49.030;1.822;2022-09-24T02:52:50;100490.53;;;20.26;49.97
62544;BME280;48597;49.030;1.822;2022-09-24T02:55:17;100487.03;;;20.26;50.01
62544;BME280;48597;49.030;1.822;2022-09-24T02:57:42;100490.72;;;20.25;49.75
62544;BME280;48597;49.030;1.822;2022-09-24T03:00:08;100483.53;;;20.25;49.83
62544;BME280;48597;49.030;1.822;2022-09-24T03:02:33;100483.53;;;20.25;49.87
62544;BME280;48597;49.030;1.822;2022-09-24T03:04:59;100474.84;;;20.23;49.81
62544;BME280;48597;49.030;1.822;2022-09-24T03:07:24;100479.19;;;20.24;49.96
62544;BME280;48597;49.030;1.822;2022-09-24T03:09:49;100480.16;;;20.23;49.63
62544;BME280;48597;49.030;1.822;2022-09-24T03:12:15;100477.34;;;20.25;50.01
62544;BME280;48597;49.030;1.822;2022-09-24T03:14:40;100473.00;;;20.24;49.83
62544;BME280;48597;49.030;1.822;2022-09-24T03:17:05;100468.50;;;20.24;49.81
62544;BME280;48597;49.030;1.822;2022-09-24T03:19:31;100470.31;;;20.24;49.73
62544;BME280;48597;49.030;1.822;2022-09-24T03:21:56;100476.53;;;20.24;49.65
62544;BME280;48597;49.030;1.822;2022-09-24T03:24:21;100470.31;;;20.24;49.80
62544;BME280;48597;49.030;1.822;2022-09-24T03:26:47;100473.84;;;20.24;49.69
62544;BME280;48597;49.030;1.822;2022-09-24T03:29:12;100467.66;;;20.24;49.72
62544;BME280;48597;49.030;1.822;2022-09-24T03:31:37;100465.97;;;20.23;49.76
62544;BME280;48597;49.030;1.822;2022-09-24T03:34:02;100463.16;;;20.24;49.61
62544;BME280;48597;49.030;1.822;2022-09-24T03:36:28;100463.16;;;20.24;49.58
62544;BME280;48597;49.030;1.822;2022-09-24T03:38:55;100457.97;;;20.23;49.76
62544;BME280;48597;49.030;1.822;2022-09-24T03:41:22;100459.81;;;20.22;49.87
62544;BME280;48597;49.030;1.822;2022-09-24T03:43:47;100460.63;;;20.23;49.54
62544;BME280;48597;49.030;1.822;2022-09-24T03:46:13;100463.31;;;20.23;49.81
62544;BME280;48597;49.030;1.822;2022-09-24T03:48:41;100461.47;;;20.23;49.67
62544;BME280;48597;49.030;1.822;2022-09-24T03:51:12;100456.13;;;20.23;49.61
62544;BME280;48597;49.030;1.822;2022-09-24T03:53:38;100450.13;;;20.21;49.68
62544;BME280;48597;49.030;1.822;2022-09-24T03:56:05;100457.97;;;20.23;49.65
62544;BME280;48597;49.030;1.822;2022-09-24T03:58:31;100455.47;;;20.21;49.74
62544;BME280;48597;49.030;1.822;2022-09-24T04:01:00;100459.97;;;20.21;49.64
62544;BME280;48597;49.030;1.822;2022-09-24T04:03:26;100447.28;;;20.23;49.79
62544;BME280;48597;49.030;1.822;2022-09-24T04:05:51;100459.81;;;20.22;49.66
62544;BME280;48597;49.030;1.822;2022-09-24T04:08:18;100445.63;;;20.22;49.64
62544;BME280;48597;49.030;1.822;2022-09-24T04:10:44;100443.94;;;20.21;49.70
62544;BME280;48597;49.030;1.822;2022-09-24T04:13:10;100445.63;;;20.22;49.75
62544;BME280;48597;49.030;1.822;2022-09-24T04:15:36;100442.09;;;20.21;49.76
62544;BME280;48597;49.030;1.822;2022-09-24T04:18:01;100447.44;;;20.21;49.86
62544;BME280;48597;49.030;1.822;2022-09-24T04:20:27;100443.94;;;20.21;49.66
62544;BME280;48597;49.030;1.822;2022-09-24T04:22:56;100441.28;;;20.21;49.68
62544;BME280;48597;49.030;1.822;2022-09-24T04:25:23;100441.28;;;20.21;49.82
62544;BME280;48597;49.030;1.822;2022-09-24T04:27:57;100437.78;;;20.20;49.68
62544;BME280;48597;49.030;1.822;2022-09-24T04:30:24;100436.91;;;20.20;49.64
62544;BME280;48597;49.030;1.822;2022-09-24T04:32:50;100441.28;;;20.21;49.77
62544;BME280;48597;49.030;1.822;2022-09-24T04:35:17;100444.78;;;20.21;49.78
62544;BME280;48597;49.030;1.822;2022-09-24T04:37:43;100442.25;;;20.20;49.67
62544;BME280;48597;49.030;1.822;2022-09-24T04:40:09;100446.63;;;20.21;49.68
62544;BME280;48597;49.030;1.822;2022-09-24T04:42:37;100442.25;;;20.20;49.56
62544;BME280;48597;49.030;1.822;2022-09-24T04:45:05;100446.63;;;20.21;49.66
62544;BME280;48597;49.030;1.822;2022-09-24T04:47:30;100442.25;;;20.20;49.57
62544;BME280;48597;49.030;1.822;2022-09-24T04:49:55;100443.94;;;20.21;49.51
62544;BME280;48597;49.030;1.822;2022-09-24T04:52:21;100450.25;;;20.20;49.52
62544;BME280;48597;49.030;1.822;2022-09-24T04:54:50;100443.94;;;20.21;49.47
62544;BME280;48597;49.030;1.822;2022-09-24T04:57:16;100438.75;;;20.19;49.43
62544;BME280;48597;49.030;1.822;2022-09-24T04:59:42;100443.25;;;20.19;49.41
62544;BME280;48597;49.030;1.822;2022-09-24T05:02:08;100436.06;;;20.19;49.46
62544;BME280;48597;49.030;1.822;2022-09-24T05:04:37;100444.09;;;20.19;49.31
62544;BME280;48597;49.030;1.822;2022-09-24T05:07:02;100443.25;;;20.19;49.43
62544;BME280;48597;49.030;1.822;2022-09-24T05:09:28;100447.75;;;20.18;49.46
62544;BME280;48597;49.030;1.822;2022-09-24T05:11:57;100446.94;;;20.18;49.25
62544;BME280;48597;49.030;1.822;2022-09-24T05:14:22;100447.75;;;20.18;49.53
62544;BME280;48597;49.030;1.822;2022-09-24T05:16:47;100444.44;;;20.16;50.14
62544;BME280;48597;49.030;1.822;2022-09-24T05:19:13;100453.28;;;20.17;49.75
62544;BME280;48597;49.030;1.822;2022-09-24T05:21:38;100454.13;;;20.17;50.00
62544;BME280;48597;49.030;1.822;2022-09-24T05:24:03;100456.78;;;20.17;50.33
62544;BME280;48597;49.030;1.822;2022-09-24T05:26:29;100454.25;;;20.16;50.70
62544;BME280;48597;49.030;1.822;2022-09-24T05:29:13;100453.94;;;20.19;50.65
62544;BME280;48597;49.030;1.822;2022-09-24T05:31:38;100456.78;;;20.17;50.52
62544;BME280;48597;49.030;1.822;2022-09-24T05:34:03;100447.75;;;20.18;50.54
62544;BME280;48597;49.030;1.822;2022-09-24T05:36:29;100453.13;;;20.18;50.73
62544;BME280;48597;49.030;1.822;2022-09-24T05:38:55;100459.28;;;20.19;50.47
62544;BME280;48597;49.030;1.822;2022-09-24T05:41:20;100459.28;;;20.19;50.41
62544;BME280;48597;49.030;1.822;2022-09-24T05:43:46;100462.78;;;20.19;50.57
62544;BME280;48597;49.030;1.822;2022-09-24T05:46:12;100458.44;;;20.18;50.39
62544;BME280;48597;49.030;1.822;2022-09-24T05:48:37;100459.28;;;20.19;50.63
62544;BME280;48597;49.030;1.822;2022-09-24T05:51:03;100458.28;;;20.20;50.73
62544;BME280;48597;49.030;1.822;2022-09-24T05:53:29;100460.94;;;20.20;50.87
62544;BME280;48597;49.030;1.822;2022-09-24T05:55:55;100462.78;;;20.19;50.92
62544;BME280;48597;49.030;1.822;2022-09-24T05:58:21;100459.16;;;20.20;50.90
62544;BME280;48597;49.030;1.822;2022-09-24T06:00:47;100466.28;;;20.20;50.73
62544;BME280;48597;49.030;1.822;2022-09-24T06:03:14;100468.00;;;20.21;50.52
62544;BME280;48597;49.030;1.822;2022-09-24T06:05:47;100475.19;;;20.20;50.80
62544;BME280;48597;49.030;1.822;2022-09-24T06:08:14;100481.50;;;20.19;50.69
62544;BME280;48597;49.030;1.822;2022-09-24T06:10:41;100481.50;;;20.19;50.76
62544;BME280;48597;49.030;1.822;2022-09-24T06:13:07;100484.16;;;20.19;50.64
62544;BME280;48597;49.030;1.822;2022-09-24T06:15:36;100488.53;;;20.20;51.00
62544;BME280;48597;49.030;1.822;2022-09-24T06:18:02;100479.81;;;20.18;50.90
62544;BME280;48597;49.030;1.822;2022-09-24T06:20:28;100486.84;;;20.19;50.99
62544;BME280;48597;49.030;1.822;2022-09-24T06:22:54;100485.00;;;20.20;51.05
62544;BME280;48597;49.030;1.822;2022-09-24T06:25:21;100491.22;;;20.20;51.34
62544;BME280;48597;49.030;1.822;2022-09-24T06:27:55;100490.34;;;20.20;51.08
62544;BME280;48597;49.030;1.822;2022-09-24T06:30:35;100493.88;;;20.20;50.83
62544;BME280;48597;49.030;1.822;2022-09-24T06:33:07;100491.22;;;20.20;51.11
62544;BME280;48597;49.030;1.822;2022-09-24T06:35:34;100498.34;;;20.20;50.95
62544;BME280;48597;49.030;1.822;2022-09-24T06:38:00;100493.19;;;20.18;51.18
62544;BME280;48597;49.030;1.822;2022-09-24T06:40:26;100491.53;;;20.17;51.03
62544;BME280;48597;49.030;1.822;2022-09-24T06:42:52;100492.19;;;20.19;51.18
62544;BME280;48597;49.030;1.822;2022-09-24T06:45:19;100494.03;;;20.19;51.28
62544;BME280;48597;49.030;1.822;2022-09-24T06:47:54;100495.84;;;20.18;51.26
62544;BME280;48597;49.030;1.822;2022-09-24T06:50:21;100501.19;;;20.18;51.14
62544;BME280;48597;49.030;1.822;2022-09-24T06:52:46;100495.84;;;20.18;51.21
62544;BME280;48597;49.030;1.822;2022-09-24T06:55:12;100496.69;;;20.19;51.20
62544;BME280;48597;49.030;1.822;2022-09-24T06:57:37;100502.03;;;20.19;51.18
62544;BME280;48597;49.030;1.822;2022-09-24T07:00:03;100503.88;;;20.18;51.31
62544;BME280;48597;49.030;1.822;2022-09-24T07:02:28;100506.53;;;20.18;51.26
62544;BME280;48597;49.030;1.822;2022-09-24T07:04:55;100511.06;;;20.18;51.26
62544;BME280;48597;49.030;1.822;2022-09-24T07:07:20;100504.88;;;20.17;51.13
62544;BME280;48597;49.030;1.822;2022-09-24T07:09:57;100507.69;;;20.16;51.18
62544;BME280;48597;49.030;1.822;2022-09-24T07:12:23;100504.88;;;20.17;51.14
62544;BME280;48597;49.030;1.822;2022-09-24T07:14:48;100518.22;;;20.17;51.03
62544;BME280;48597;49.030;1.822;2022-09-24T07:17:14;100518.22;;;20.17;51.06
62544;BME280;48597;49.030;1.822;2022-09-24T07:19:40;100517.53;;;20.15;51.13
62544;BME280;48597;49.030;1.822;2022-09-24T07:22:06;100519.25;;;20.16;51.11
62544;BME280;48597;49.030;1.822;2022-09-24T07:24:32;100515.56;;;20.17;51.02
62544;BME280;48597;49.030;1.822;2022-09-24T07:26:57;100526.25;;;20.17;51.07
62544;BME280;48597;49.030;1.822;2022-09-24T07:29:22;100520.91;;;20.17;50.98
62544;BME280;48597;49.030;1.822;2022-09-24T07:31:48;100524.59;;;20.16;50.99
62544;BME280;48597;49.030;1.822;2022-09-24T07:34:13;100529.75;;;20.18;51.07
62544;BME280;48597;49.030;1.822;2022-09-24T07:36:42;100532.59;;;20.16;51.13
62544;BME280;48597;49.030;1.822;2022-09-24T07:39:07;100530.75;;;20.17;51.07
62544;BME280;48597;49.030;1.822;2022-09-24T07:41:33;100523.72;;;20.16;51.14
62544;BME280;48597;49.030;1.822;2022-09-24T07:43:58;100532.59;;;20.16;51.18
62544;BME280;48597;49.030;1.822;2022-09-24T07:46:24;100532.59;;;20.16;50.98
62544;BME280;48597;49.030;1.822;2022-09-24T07:48:53;100535.28;;;20.16;51.05
62544;BME280;48597;49.030;1.822;2022-09-24T07:51:22;100529.94;;;20.16;51.17
62544;BME280;48597;49.030;1.822;2022-09-24T07:53:48;100538.91;;;20.15;51.26
62544;BME280;48597;49.030;1.822;2022-09-24T07:56:13;100535.09;;;20.18;51.22
62544;BME280;48597;49.030;1.822;2022-09-24T07:58:39;100544.25;;;20.15;51.45
62544;BME280;48597;49.030;1.822;2022-09-24T08:01:04;100545.09;;;20.16;51.25
62544;BME280;48597;49.030;1.822;2022-09-24T08:03:30;100537.94;;;20.16;51.11
62544;BME280;48597;49.030;1.822;2022-09-24T08:05:57;100545.97;;;20.16;51.21
62544;BME280;48597;49.030;1.822;2022-09-24T08:08:24;100548.63;;;20.16;51.22
62544;BME280;48597;49.030;1.822;2022-09-24T08:10:49;100551.31;;;20.16;51.25
62544;BME280;48597;49.030;1.822;2022-09-24T08:13:15;100544.25;;;20.15;51.12
62544;BME280;48597;49.030;1.822;2022-09-24T08:15:40;100549.59;;;20.15;51.00
62544;BME280;48597;49.030;1.822;2022-09-24T08:18:06;100554.94;;;20.15;51.16
62544;BME280;48597;49.030;1.822;2022-09-24T08:20:32;100550.59;;;20.14;51.20
62544;BME280;48597;49.030;1.822;2022-09-24T08:23:01;100551.31;;;20.16;51.19
62544;BME280;48597;49.030;1.822;2022-09-24T08:25:27;100558.44;;;20.16;51.22
62544;BME280;48597;49.030;1.822;2022-09-24T08:27:53;100559.44;;;20.15;51.09
62544;BME280;48597;49.030;1.822;2022-09-24T08:30:18;100566.47;;;20.16;51.23
62544;BME280;48597;49.030;1.822;2022-09-24T08:32:46;100565.63;;;20.15;51.11
62544;BME280;48597;49.030;1.822;2022-09-24T08:35:14;100564.78;;;20.15;51.29
62544;BME280;48597;49.030;1.822;2022-09-24T08:37:40;100569.31;;;20.14;51.29
62544;BME280;48597;49.030;1.822;2022-09-24T08:40:06;100570.00;;;20.16;51.32
62544;BME280;48597;49.030;1.822;2022-09-24T08:45:27;100573.66;;;20.15;51.20
62544;BME280;48597;49.030;1.822;2022-09-24T08:48:16;100580.00;;;20.14;51.08
62544;BME280;48597;49.030;1.822;2022-09-24T08:51:06;100585.34;;;20.14;51.22
62544;BME280;48597;49.030;1.822;2022-09-24T08:56:28;100582.66;;;20.14;51.22
62544;BME280;48597;49.030;1.822;2022-09-24T08:58:59;100587.16;;;20.14;51.07
62544;BME280;48597;49.030;1.822;2022-09-24T09:07:24;100591.50;;;20.15;51.24
62544;BME280;48597;49.030;1.822;2022-09-24T09:10:15;100590.69;;;20.14;51.23
62544;BME280;48597;49.030;1.822;2022-09-24T09:12:53;100594.19;;;20.15;51.13
62544;BME280;48597;49.030;1.822;2022-09-24T09:15:33;100591.50;;;20.15;51.11
62544;BME280;48597;49.030;1.822;2022-09-24T09:18:25;100596.84;;;20.15;51.23
62544;BME280;48597;49.030;1.822;2022-09-24T09:20:54;100596.03;;;20.14;51.11
62544;BME280;48597;49.030;1.822;2022-09-24T09:23:35;100598.69;;;20.14;51.20
62544;BME280;48597;49.030;1.822;2022-09-24T09:26:02;100599.53;;;20.15;51.09
62544;BME280;48597;49.030;1.822;2022-09-24T09:28:31;100598.69;;;20.14;51.25
62544;BME280;48597;49.030;1.822;2022-09-24T09:31:26;100599.69;;;20.13;50.98
62544;BME280;48597;49.030;1.822;2022-09-24T09:44:49;100606.72;;;20.14;51.05
62544;BME280;48597;49.030;1.822;2022-09-24T09:47:16;100608.38;;;20.15;51.04
62544;BME280;48597;49.030;1.822;2022-09-24T09:49:46;100605.69;;;20.15;51.12
62544;BME280;48597;49.030;1.822;2022-09-24T09:52:19;100608.38;;;20.15;51.20
62544;BME280;48597;49.030;1.822;2022-09-24T09:54:45;100601.38;;;20.14;51.02
62544;BME280;48597;49.030;1.822;2022-09-24T09:57:20;100604.88;;;20.15;51.04
62544;BME280;48597;49.030;1.822;2022-09-24T09:59:52;100598.53;;;20.16;51.12
62544;BME280;48597;49.030;1.822;2022-09-24T10:02:24;100599.38;;;20.16;51.03
62544;BME280;48597;49.030;1.822;2022-09-24T10:04:53;100603.88;;;20.16;51.05
62544;BME280;48597;49.030;1.822;2022-09-24T10:07:20;100602.91;;;20.17;51.04
62544;BME280;48597;49.030;1.822;2022-09-24T10:09:45;100598.53;;;20.16;50.81
62544;BME280;48597;49.030;1.822;2022-09-24T10:12:19;100608.25;;;20.17;51.14
62544;BME280;48597;49.030;1.822;2022-09-24T10:14:57;100595.72;;;20.17;51.00
62544;BME280;48597;49.030;1.822;2022-09-24T10:17:29;100600.06;;;20.18;50.91
62544;BME280;48597;49.030;1.822;2022-09-24T10:19:55;100594.88;;;20.17;50.81
62544;BME280;48597;49.030;1.822;2022-09-24T10:22:23;100592.03;;;20.18;50.81
62544;BME280;48597;49.030;1.822;2022-09-24T10:24:52;100589.38;;;20.18;50.84
62544;BME280;48597;49.030;1.822;2022-09-24T10:27:30;100591.72;;;20.21;50.57
62544;BME280;48597;49.030;1.822;2022-09-24T10:29:57;100589.88;;;20.22;50.38
62544;BME280;48597;49.030;1.822;2022-09-24T10:32:42;100590.72;;;20.22;50.36
62544;BME280;48597;49.030;1.822;2022-09-24T10:35:35;100589.72;;;20.23;50.40
62544;BME280;48597;49.030;1.822;2022-09-24T10:38:15;100588.06;;;20.22;50.18
62544;BME280;48597;49.030;1.822;2022-09-24T10:40:41;100596.75;;;20.24;50.06
62544;BME280;48597;49.030;1.822;2022-09-24T10:43:13;100596.75;;;20.24;50.29
62544;BME280;48597;49.030;1.822;2022-09-24T10:48:43;100598.25;;;20.27;50.45
62544;BME280;48597;49.030;1.822;2022-09-24T10:51:12;100596.41;;;20.27;50.22
62544;BME280;48597;49.030;1.822;2022-09-24T10:53:58;100593.63;;;20.29;50.29
62544;BME280;48597;49.030;1.822;2022-09-24T10:56:38;100597.13;;;20.29;50.31
62544;BME280;48597;49.030;1.822;2022-09-24T11:04:32;100585.44;;;20.30;50.60
62544;BME280;48597;49.030;1.822;2022-09-24T11:10:14;100586.94;;;20.33;50.69
62544;BME280;48597;49.030;1.822;2022-09-24T11:20:50;100590.47;;;20.33;50.97
62544;BME280;48597;49.030;1.822;2022-09-24T11:23:33;100585.78;;;20.35;50.90
62544;BME280;48597;49.030;1.822;2022-09-24T11:31:31;100584.81;;;20.37;51.04
62544;BME280;48597;49.030;1.822;2022-09-24T11:34:33;100586.47;;;20.38;51.07
62544;BME280;48597;49.030;1.822;2022-09-24T11:37:15;100577.44;;;20.39;51.17
62544;BME280;48597;49.030;1.822;2022-09-24T11:40:03;100583.78;;;20.38;51.29
62544;BME280;48597;49.030;1.822;2022-09-24T11:45:26;100575.78;;;20.38;51.53
62544;BME280;48597;49.030;1.822;2022-09-24T11:53:17;100575.09;;;20.35;51.23
62544;BME280;48597;49.030;1.822;2022-09-24T11:58:28;100575.94;;;20.36;51.19
62544;BME280;48597;49.030;1.822;2022-09-24T12:01:09;100570.44;;;20.38;51.31
62544;BME280;48597;49.030;1.822;2022-09-24T12:03:49;100579.28;;;20.38;51.23
62544;BME280;48597;49.030;1.822;2022-09-24T12:06:34;100581.97;;;20.38;51.56
62544;BME280;48597;49.030;1.822;2022-09-24T12:09:16;100579.28;;;20.38;51.83
62544;BME280;48597;49.030;1.822;2022-09-24T12:11:51;100579.47;;;20.37;51.86
62544;BME280;48597;49.030;1.822;2022-09-24T12:14:23;100585.63;;;20.37;52.13
62544;BME280;48597;49.030;1.822;2022-09-24T12:16:56;100583.78;;;20.38;51.78
62544;BME280;48597;49.030;1.822;2022-09-24T12:19:30;100581.13;;;20.38;52.16
62544;BME280;48597;49.030;1.822;2022-09-24T12:21:58;100584.81;;;20.37;52.03
62544;BME280;48597;49.030;1.822;2022-09-24T12:24:36;100578.44;;;20.38;52.05
62544;BME280;48597;49.030;1.822;2022-09-24T12:27:12;100574.13;;;20.37;52.08
62544;BME280;48597;49.030;1.822;2022-09-24T12:29:44;100570.44;;;20.38;52.09
62544;BME280;48597;49.030;1.822;2022-09-24T12:32:41;100581.13;;;20.38;52.08
62544;BME280;48597;49.030;1.822;2022-09-24T12:38:00;100573.94;;;20.38;51.99
62544;BME280;48597;49.030;1.822;2022-09-24T12:40:50;100577.63;;;20.37;51.93
62544;BME280;48597;49.030;1.822;2022-09-24T12:44:13;100571.28;;;20.38;52.00
62544;BME280;48597;49.030;1.822;2022-09-24T12:51:49;100571.28;;;20.38;51.78
62544;BME280;48597;49.030;1.822;2022-09-24T12:54:33;100570.44;;;20.38;52.00
62544;BME280;48597;49.030;1.822;2022-09-24T12:57:15;100573.09;;;20.38;52.07
62544;BME280;48597;49.030;1.822;2022-09-24T12:59:59;100571.28;;;20.38;51.93
62544;BME280;48597;49.030;1.822;2022-09-24T13:02:28;100559.75;;;20.38;52.18
62544;BME280;48597;49.030;1.822;2022-09-24T13:07:31;100570.25;;;20.39;51.84
62544;BME280;48597;49.030;1.822;2022-09-24T13:10:20;100558.75;;;20.39;52.09
62544;BME280;48597;49.030;1.822;2022-09-24T13:12:46;100560.44;;;20.40;52.04
62544;BME280;48597;49.030;1.822;2022-09-24T13:15:29;100567.59;;;20.39;51.90
62544;BME280;48597;49.030;1.822;2022-09-24T13:20:36;100566.75;;;20.39;51.88
62544;BME280;48597;49.030;1.822;2022-09-24T13:25:36;100565.59;;;20.41;51.77
62544;BME280;48597;49.030;1.822;2022-09-24T13:28:18;100562.94;;;20.41;51.70
62544;BME280;48597;49.030;1.822;2022-09-24T13:30:58;100552.41;;;20.40;51.46
62544;BME280;48597;49.030;1.822;2022-09-24T13:33:30;100544.41;;;20.40;51.17
62544;BME280;48597;49.030;1.822;2022-09-24T13:38:33;100563.94;;;20.40;51.12
62544;BME280;48597;49.030;1.822;2022-09-24T13:41:11;100560.44;;;20.40;51.26
62544;BME280;48597;49.030;1.822;2022-09-24T13:43:58;100547.91;;;20.40;51.17
62544;BME280;48597;49.030;1.822;2022-09-24T13:46:25;100547.91;;;20.40;51.22
62544;BME280;48597;49.030;1.822;2022-09-24T13:48:58;100559.44;;;20.41;51.35
62544;BME280;48597;49.030;1.822;2022-09-24T13:51:30;100557.59;;;20.41;51.26
62544;BME280;48597;49.030;1.822;2022-09-24T13:54:13;100548.75;;;20.41;51.13
62544;BME280;48597;49.030;1.822;2022-09-24T13:57:08;100562.09;;;20.41;51.31
62544;BME280;48597;49.030;1.822;2022-09-24T13:59:35;100553.25;;;20.40;51.34
62544;BME280;48597;49.030;1.822;2022-09-24T14:02:02;100555.75;;;20.42;51.52
62544;BME280;48597;49.030;1.822;2022-09-24T14:04:27;100554.09;;;20.41;51.79
62544;BME280;48597;49.030;1.822;2022-09-24T14:06:54;100550.56;;;20.40;51.69
62544;BME280;48597;49.030;1.822;2022-09-24T14:09:32;100560.25;;;20.41;51.63
62544;BME280;48597;49.030;1.822;2022-09-24T14:12:00;100555.75;;;20.42;51.53
62544;BME280;48597;49.030;1.822;2022-09-24T14:14:28;100550.56;;;20.40;51.46
62544;BME280;48597;49.030;1.822;2022-09-24T14:17:05;100552.25;;;20.41;51.19
62544;BME280;48597;49.030;1.822;2022-09-24T14:19:31;100554.09;;;20.41;51.20
62544;BME280;48597;49.030;1.822;2022-09-24T14:21:59;100550.41;;;20.42;51.24
62544;BME280;48597;49.030;1.822;2022-09-24T14:24:27;100548.75;;;20.41;51.03
62544;BME280;48597;49.030;1.822;2022-09-24T14:27:21;100551.41;;;20.41;51.08
62544;BME280;48597;49.030;1.822;2022-09-24T14:29:58;100546.06;;;20.41;51.15
62544;BME280;48597;49.030;1.822;2022-09-24T14:32:30;100552.41;;;20.40;51.13
62544;BME280;48597;49.030;1.822;2022-09-24T14:34:59;100554.09;;;20.41;51.07
62544;BME280;48597;49.030;1.822;2022-09-24T14:37:27;100546.91;;;20.41;51.03
62544;BME280;48597;49.030;1.822;2022-09-24T14:40:11;100543.41;;;20.41;50.93
62544;BME280;48597;49.030;1.822;2022-09-24T14:42:41;100538.06;;;20.41;50.95
62544;BME280;48597;49.030;1.822;2022-09-24T14:45:22;100541.56;;;20.41;50.97
62544;BME280;48597;49.030;1.822;2022-09-24T14:50:43;100538.88;;;20.41;51.10